Time;durP1;ratioP1;P1;durP2;ratioP2;P2;SDS_P1;SDS_P2;PMS_P1;PMS_P2;Temp;Humidity;BMP_temperature;BMP_pressure;BME280_temperature;BME280_humidity;BME280_pressure;Samples;Min_cycle;Max_cycle;Signal;HPM_P1;HPM_P2
2021/09/16 00:00:09;;;;;;;0.10;0.10;;;;;;;;;;5028669;28;20061;-88
2021/09/16 00:02:35;;;;;;;0.10;0.10;;;;;;;;;;5012204;28;20045;-88
2021/09/16 00:05:01;;;;;;;0.10;0.10;;;;;;;;;;5012231;28;20030;-89
2021/09/16 00:07:27;;;;;;;0.10;0.10;;;;;;;;;;5012149;28;20045;-88
2021/09/16 00:09:53;;;;;;;0.10;0.10;;;;;;;;;;5028346;28;20045;-87
2021/09/16 00:12:19;;;;;;;0.10;0.10;;;;;;;;;;5012332;28;20049;-88
2021/09/16 00:14:45;;;;;;;0.10;0.10;;;;;;;;;;5011884;28;20077;-90
2021/09/16 00:17:11;;;;;;;0.10;0.10;;;;;;;;;;5011242;28;20362;-89
2021/09/16 00:19:37;;;;;;;0.10;0.10;;;;;;;;;;5011856;28;20046;-89
2021/09/16 00:22:03;;;;;;;0.10;0.10;;;;;;;;;;5011816;28;20510;-89
2021/09/16 00:24:29;;;;;;;0.10;0.10;;;;;;;;;;5028059;28;20119;-89
2021/09/16 00:26:55;;;;;;;0.10;0.10;;;;;;;;;;5011965;28;20080;-89
2021/09/16 00:29:21;;;;;;;0.10;0.10;;;;;;;;;;5028218;28;20503;-89
2021/09/16 00:31:47;;;;;;;0.10;0.10;;;;;;;;;;5011741;28;20390;-89
2021/09/16 00:34:12;;;;;;;0.10;0.10;;;;;;;;;;5011483;28;20050;-88
2021/09/16 00:36:38;;;;;;;0.10;0.10;;;;;;;;;;5011390;28;20053;-88
2021/09/16 00:39:05;;;;;;;0.10;0.10;;;;;;;;;;5027568;28;20042;-89
2021/09/16 00:41:31;;;;;;;0.10;0.10;;;;;;;;;;5011484;28;20378;-89
2021/09/16 00:43:57;;;;;;;0.10;0.10;;;;;;;;;;5027955;28;20038;-89
2021/09/16 00:46:23;;;;;;;0.10;0.10;;;;;;;;;;5027383;28;20163;-88
2021/09/16 00:48:49;;;;;;;0.10;0.10;;;;;;;;;;5027707;28;20049;-89
2021/09/16 00:51:15;;;;;;;0.10;0.10;;;;;;;;;;5011356;28;20401;-89
2021/09/16 00:53:41;;;;;;;0.10;0.10;;;;;;;;;;5027477;28;20111;-89
2021/09/16 00:56:07;;;;;;;0.10;0.10;;;;;;;;;;5010950;28;20077;-88
2021/09/16 00:58:33;;;;;;;0.10;0.10;;;;;;;;;;5011813;28;20156;-92
2021/09/16 01:00:59;;;;;;;0.10;0.10;;;;;;;;;;5011863;28;20145;-89
2021/09/16 01:03:25;;;;;;;0.10;0.10;;;;;;;;;;5011188;28;20037;-90
2021/09/16 01:05:51;;;;;;;0.10;0.10;;;;;;;;;;4994841;28;20194;-89
2021/09/16 01:08:18;;;;;;;0.10;0.10;;;;;;;;;;5011218;28;20046;-90
2021/09/16 01:10:44;;;;;;;0.10;0.10;;;;;;;;;;5011251;28;20049;-91
2021/09/16 01:13:10;;;;;;;0.10;0.10;;;;;;;;;;5011016;28;20559;-90
2021/09/16 01:15:36;;;;;;;0.10;0.10;;;;;;;;;;5010901;28;20042;-89
2021/09/16 01:18:02;;;;;;;0.10;0.10;;;;;;;;;;5010758;28;20045;-89
2021/09/16 01:20:28;;;;;;;0.10;0.10;;;;;;;;;;5010921;28;20073;-90
2021/09/16 01:22:54;;;;;;;0.10;0.10;;;;;;;;;;5010860;28;20080;-90
2021/09/16 01:25:23;;;;;;;0.10;0.10;;;;;;;;;;5010823;28;20603;-90
2021/09/16 01:27:49;;;;;;;0.10;0.10;;;;;;;;;;5011071;28;20065;-90
2021/09/16 01:30:15;;;;;;;0.10;0.10;;;;;;;;;;5011179;28;20041;-90
2021/09/16 01:32:41;;;;;;;0.10;0.10;;;;;;;;;;5010875;28;20046;-90
2021/09/16 01:35:08;;;;;;;0.10;0.10;;;;;;;;;;5011165;28;20096;-90
2021/09/16 01:37:33;;;;;;;0.10;0.10;;;;;;;;;;5010895;28;20042;-90
2021/09/16 01:39:59;;;;;;;0.10;0.10;;;;;;;;;;5010780;28;20469;-89
2021/09/16 01:42:25;;;;;;;0.10;0.10;;;;;;;;;;5011051;28;20038;-88
2021/09/16 01:44:51;;;;;;;0.10;0.10;;;;;;;;;;5010423;28;20053;-89
2021/09/16 01:47:17;;;;;;;0.10;0.10;;;;;;;;;;5010838;28;20042;-89
2021/09/16 01:49:43;;;;;;;0.10;0.10;;;;;;;;;;5010527;28;20057;-89
2021/09/16 01:52:10;;;;;;;0.10;0.10;;;;;;;;;;5010471;28;20042;-89
2021/09/16 01:54:36;;;;;;;0.10;0.10;;;;;;;;;;5026907;28;20093;-89
2021/09/16 01:57:02;;;;;;;0.10;0.10;;;;;;;;;;5010549;28;20037;-88
2021/09/16 01:59:28;;;;;;;0.10;0.10;;;;;;;;;;5010407;28;20052;-88
2021/09/16 02:01:54;;;;;;;0.10;0.10;;;;;;;;;;5027124;28;20038;-89
2021/09/16 02:04:20;;;;;;;0.10;0.10;;;;;;;;;;5010681;28;20034;-90
2021/09/16 02:06:46;;;;;;;0.10;0.10;;;;;;;;;;5027040;28;20472;-89
2021/09/16 02:09:12;;;;;;;0.10;0.10;;;;;;;;;;5010503;28;20049;-88
2021/09/16 02:11:38;;;;;;;0.10;0.10;;;;;;;;;;5010562;28;20044;-89
2021/09/16 02:14:03;;;;;;;0.10;0.10;;;;;;;;;;5026850;28;20488;-89
2021/09/16 02:16:29;;;;;;;0.10;0.10;;;;;;;;;;5010581;28;20042;-89
2021/09/16 02:18:55;;;;;;;0.10;0.10;;;;;;;;;;5010420;28;20092;-88
2021/09/16 02:21:21;;;;;;;0.10;0.10;;;;;;;;;;5010454;28;20046;-89
2021/09/16 02:23:47;;;;;;;0.10;0.10;;;;;;;;;;5010549;28;20061;-89
2021/09/16 02:26:13;;;;;;;0.10;0.10;;;;;;;;;;5010654;28;20042;-88
2021/09/16 02:28:39;;;;;;;0.10;0.10;;;;;;;;;;5010313;28;20437;-87
2021/09/16 02:31:05;;;;;;;0.10;0.10;;;;;;;;;;5010327;28;20457;-88
2021/09/16 02:33:32;;;;;;;0.17;0.17;;;;;;;;;;5010200;28;20452;-88
2021/09/16 02:35:58;;;;;;;0.10;0.10;;;;;;;;;;5026601;28;20061;-88
2021/09/16 02:38:24;;;;;;;0.20;0.20;;;;;;;;;;5010133;28;20052;-88
2021/09/16 02:40:50;;;;;;;0.10;0.10;;;;;;;;;;5012108;28;20038;-88
2021/09/16 02:43:16;;;;;;;0.10;0.10;;;;;;;;;;5030223;28;20045;-88
2021/09/16 02:45:42;;;;;;;0.10;0.10;;;;;;;;;;5013321;28;20058;-88
2021/09/16 02:48:08;;;;;;;0.10;0.10;;;;;;;;;;5013598;28;20092;-88
2021/09/16 02:50:34;;;;;;;0.10;0.10;;;;;;;;;;5013611;28;20041;-89
2021/09/16 02:53:00;;;;;;;0.10;0.10;;;;;;;;;;5013640;28;20448;-88
2021/09/16 02:55:26;;;;;;;0.10;0.10;;;;;;;;;;5013407;28;20132;-88
2021/09/16 02:57:52;;;;;;;0.10;0.10;;;;;;;;;;5013419;28;20042;-89
2021/09/16 03:00:18;;;;;;;0.10;0.10;;;;;;;;;;5013455;28;20041;-89
2021/09/16 03:02:44;;;;;;;0.10;0.10;;;;;;;;;;5013239;28;20527;-89
2021/09/16 03:05:10;;;;;;;0.10;0.10;;;;;;;;;;5013584;28;20070;-89
2021/09/16 03:07:36;;;;;;;0.10;0.10;;;;;;;;;;5013332;28;20132;-88
2021/09/16 03:10:03;;;;;;;0.10;0.10;;;;;;;;;;5013076;28;20155;-88
2021/09/16 03:12:29;;;;;;;0.10;0.10;;;;;;;;;;5013599;28;20038;-89
2021/09/16 03:14:55;;;;;;;0.10;0.10;;;;;;;;;;5029576;28;20041;-89
2021/09/16 03:17:20;;;;;;;0.10;0.10;;;;;;;;;;5012909;28;20038;-89
2021/09/16 03:19:46;;;;;;;0.10;0.10;;;;;;;;;;5013094;28;20056;-89
2021/09/16 03:22:13;;;;;;;0.10;0.10;;;;;;;;;;5013020;28;20550;-89
2021/09/16 03:24:39;;;;;;;0.10;0.10;;;;;;;;;;5013306;28;20050;-90
2021/09/16 03:27:05;;;;;;;0.10;0.10;;;;;;;;;;4996835;28;20044;-90
2021/09/16 03:29:31;;;;;;;0.20;0.20;;;;;;;;;;5013018;28;20062;-90
2021/09/16 03:31:57;;;;;;;0.10;0.10;;;;;;;;;;5012861;28;20049;-88
2021/09/16 03:34:23;;;;;;;0.10;0.10;;;;;;;;;;5012677;28;20042;-88
2021/09/16 03:36:49;;;;;;;0.10;0.10;;;;;;;;;;5012610;28;20042;-87
2021/09/16 03:39:15;;;;;;;0.10;0.10;;;;;;;;;;5012556;28;20180;-88
2021/09/16 03:41:41;;;;;;;0.10;0.10;;;;;;;;;;5029020;28;20499;-89
2021/09/16 03:44:06;;;;;;;0.45;0.30;;;;;;;;;;5014154;28;20068;-88
2021/09/16 03:46:32;;;;;;;0.10;0.10;;;;;;;;;;5014749;28;20042;-88
2021/09/16 03:48:58;;;;;;;0.10;0.10;;;;;;;;;;4996361;28;20108;-88
2021/09/16 03:51:24;;;;;;;0.10;0.10;;;;;;;;;;5012080;28;20069;-88
2021/09/16 03:53:50;;;;;;;0.10;0.10;;;;;;;;;;5028455;28;20038;-88
2021/09/16 03:56:16;;;;;;;0.10;0.10;;;;;;;;;;5012481;28;20045;-89
2021/09/16 03:58:42;;;;;;;0.10;0.10;;;;;;;;;;5012617;28;20092;-89
2021/09/16 04:01:08;;;;;;;0.10;0.10;;;;;;;;;;5012338;28;20037;-88
2021/09/16 04:03:34;;;;;;;0.10;0.10;;;;;;;;;;5012196;28;20049;-88
2021/09/16 04:06:00;;;;;;;0.10;0.10;;;;;;;;;;5012079;28;20038;-88
2021/09/16 04:08:26;;;;;;;0.10;0.10;;;;;;;;;;5028828;28;20049;-88
2021/09/16 04:10:52;;;;;;;0.17;0.17;;;;;;;;;;5012179;28;20081;-88
2021/09/16 04:13:18;;;;;;;0.10;0.10;;;;;;;;;;5012218;28;20045;-88
2021/09/16 04:15:44;;;;;;;0.10;0.10;;;;;;;;;;5012011;28;20057;-88
2021/09/16 04:18:10;;;;;;;0.10;0.10;;;;;;;;;;5013362;28;20050;-89
2021/09/16 04:20:36;;;;;;;0.10;0.10;;;;;;;;;;5016286;28;20042;-89
2021/09/16 04:23:02;;;;;;;0.10;0.10;;;;;;;;;;5015601;28;20041;-88
2021/09/16 04:25:28;;;;;;;0.10;0.10;;;;;;;;;;5011994;28;20038;-88
2021/09/16 04:27:56;;;;;;;0.10;0.10;;;;;;;;;;5012149;28;20092;-89
2021/09/16 04:30:22;;;;;;;0.10;0.10;;;;;;;;;;4995363;28;20080;-89
2021/09/16 04:32:47;;;;;;;0.10;0.10;;;;;;;;;;5011744;28;20042;-89
2021/09/16 04:35:13;;;;;;;0.10;0.10;;;;;;;;;;5011659;28;20045;-89
2021/09/16 04:37:39;;;;;;;0.10;0.10;;;;;;;;;;5011489;28;20111;-89
2021/09/16 04:40:06;;;;;;;0.10;0.10;;;;;;;;;;5011869;28;20129;-88
2021/09/16 04:42:32;;;;;;;0.20;0.20;;;;;;;;;;5011989;28;20034;-89
2021/09/16 04:44:58;;;;;;;0.10;0.10;;;;;;;;;;5011540;28;20057;-89
2021/09/16 04:47:25;;;;;;;0.20;0.20;;;;;;;;;;5011351;28;20473;-90
2021/09/16 04:49:51;;;;;;;0.10;0.10;;;;;;;;;;4995296;28;20551;-89
2021/09/16 04:52:17;;;;;;;0.10;0.10;;;;;;;;;;5011848;28;20097;-91
2021/09/16 04:54:43;;;;;;;0.20;0.20;;;;;;;;;;5011745;28;20062;-88
2021/09/16 04:57:08;;;;;;;0.10;0.10;;;;;;;;;;5011553;28;20125;-88
2021/09/16 04:59:35;;;;;;;0.10;0.10;;;;;;;;;;5011043;28;20177;-88
2021/09/16 05:02:01;;;;;;;0.10;0.10;;;;;;;;;;5011379;28;20037;-88
2021/09/16 05:04:27;;;;;;;0.10;0.10;;;;;;;;;;5010843;28;20208;-88
2021/09/16 05:06:54;;;;;;;0.10;0.10;;;;;;;;;;5011026;28;20463;-88
2021/09/16 05:09:20;;;;;;;0.10;0.10;;;;;;;;;;5011102;28;20104;-88
2021/09/16 05:11:46;;;;;;;0.10;0.10;;;;;;;;;;5010942;28;20041;-87
2021/09/16 05:14:12;;;;;;;0.10;0.10;;;;;;;;;;5027991;28;20373;-88
2021/09/16 05:16:38;;;;;;;0.10;0.10;;;;;;;;;;5010921;28;20037;-88
2021/09/16 05:19:04;;;;;;;0.10;0.10;;;;;;;;;;5010815;28;20074;-88
2021/09/16 05:21:30;;;;;;;0.10;0.10;;;;;;;;;;5011131;28;20069;-88
2021/09/16 05:23:56;;;;;;;0.10;0.10;;;;;;;;;;5010986;28;20489;-89
2021/09/16 05:26:22;;;;;;;0.10;0.10;;;;;;;;;;5010775;28;20038;-88
2021/09/16 05:28:48;;;;;;;0.10;0.10;;;;;;;;;;5010903;28;20045;-88
2021/09/16 05:31:14;;;;;;;0.13;0.13;;;;;;;;;;5010838;28;20096;-89
2021/09/16 05:33:40;;;;;;;0.10;0.10;;;;;;;;;;5011081;28;20034;-88
2021/09/16 05:36:06;;;;;;;0.10;0.10;;;;;;;;;;5011166;28;20046;-87
2021/09/16 05:38:32;;;;;;;0.13;0.13;;;;;;;;;;5010930;28;20128;-85
2021/09/16 05:40:58;;;;;;;0.20;0.20;;;;;;;;;;5027482;28;20131;-88
2021/09/16 05:43:24;;;;;;;0.10;0.10;;;;;;;;;;5010938;28;20045;-87
2021/09/16 05:45:51;;;;;;;0.10;0.10;;;;;;;;;;5010370;28;20057;-87
2021/09/16 05:48:19;;;;;;;0.10;0.10;;;;;;;;;;5010886;28;20099;-88
2021/09/16 05:50:45;;;;;;;0.10;0.10;;;;;;;;;;5010784;28;20050;-87
2021/09/16 05:53:11;;;;;;;0.10;0.10;;;;;;;;;;5010760;28;20046;-88
2021/09/16 05:55:39;;;;;;;0.10;0.10;;;;;;;;;;5010696;28;20050;-88
2021/09/16 05:58:07;;;;;;;0.10;0.10;;;;;;;;;;5010344;28;20050;-88
2021/09/16 06:00:33;;;;;;;0.10;0.10;;;;;;;;;;5010925;28;20041;-86
2021/09/16 06:02:59;;;;;;;0.10;0.10;;;;;;;;;;5011044;28;20038;-91
2021/09/16 06:05:25;;;;;;;0.10;0.10;;;;;;;;;;5010743;28;20553;-89
2021/09/16 06:07:51;;;;;;;0.10;0.10;;;;;;;;;;5010761;28;20045;-85
2021/09/16 06:10:17;;;;;;;0.10;0.10;;;;;;;;;;5027009;28;20052;-88
2021/09/16 06:12:43;;;;;;;0.10;0.10;;;;;;;;;;5010845;28;20038;-86
2021/09/16 06:15:09;;;;;;;0.20;0.20;;;;;;;;;;5011200;28;20041;-87
2021/09/16 06:17:35;;;;;;;0.10;0.10;;;;;;;;;;5014720;28;20393;-88
2021/09/16 06:20:01;;;;;;;0.20;0.20;;;;;;;;;;5015921;28;20212;-88
2021/09/16 06:22:27;;;;;;;0.20;0.20;;;;;;;;;;4999422;28;20177;-88
2021/09/16 06:24:53;;;;;;;0.20;0.20;;;;;;;;;;5016202;28;20073;-87
2021/09/16 06:27:19;;;;;;;0.10;0.10;;;;;;;;;;5015527;28;20049;-87
2021/09/16 06:29:45;;;;;;;0.10;0.10;;;;;;;;;;5032649;28;20044;-86
2021/09/16 06:32:11;;;;;;;0.20;0.20;;;;;;;;;;5037423;28;20065;-87
2021/09/16 06:34:37;;;;;;;0.30;0.30;;;;;;;;;;5034437;28;20053;-85
2021/09/16 06:37:03;;;;;;;0.10;0.10;;;;;;;;;;5034854;28;20143;-88
2021/09/16 06:39:29;;;;;;;0.10;0.10;;;;;;;;;;5022271;28;20044;-86
2021/09/16 06:41:55;;;;;;;0.10;0.10;;;;;;;;;;5030254;28;20042;-87
2021/09/16 06:44:21;;;;;;;0.10;0.10;;;;;;;;;;5030037;28;20062;-86
2021/09/16 06:46:47;;;;;;;0.10;0.10;;;;;;;;;;5030452;28;20045;-86
2021/09/16 06:49:13;;;;;;;0.10;0.10;;;;;;;;;;5030268;28;20057;-86
2021/09/16 06:51:39;;;;;;;0.10;0.10;;;;;;;;;;5013511;28;20102;-86
2021/09/16 06:54:05;;;;;;;0.10;0.10;;;;;;;;;;5013706;28;20041;-88
2021/09/16 06:56:31;;;;;;;0.20;0.20;;;;;;;;;;5030225;28;20049;-87
2021/09/16 06:58:57;;;;;;;0.40;0.30;;;;;;;;;;5013608;28;20254;-86
2021/09/16 07:01:23;;;;;;;0.10;0.10;;;;;;;;;;5013738;28;20038;-87
2021/09/16 07:03:51;;;;;;;0.20;0.20;;;;;;;;;;5013584;28;20508;-86
2021/09/16 07:06:17;;;;;;;0.20;0.20;;;;;;;;;;4996834;28;20038;-86
2021/09/16 07:08:43;;;;;;;0.10;0.10;;;;;;;;;;5013184;28;20041;-89
2021/09/16 07:11:09;;;;;;;0.10;0.10;;;;;;;;;;5013097;28;20128;-87
2021/09/16 07:13:35;;;;;;;0.20;0.20;;;;;;;;;;5013589;28;20112;-86
2021/09/16 07:16:01;;;;;;;0.10;0.10;;;;;;;;;;5012955;28;20037;-85
2021/09/16 07:18:27;;;;;;;0.10;0.10;;;;;;;;;;4996913;28;20068;-85
2021/09/16 07:20:53;;;;;;;0.10;0.10;;;;;;;;;;5013175;28;20042;-86
2021/09/16 07:23:19;;;;;;;0.10;0.10;;;;;;;;;;4996618;28;20121;-88
2021/09/16 07:25:45;;;;;;;0.20;0.20;;;;;;;;;;4996924;28;20144;-84
2021/09/16 07:28:11;;;;;;;0.20;0.20;;;;;;;;;;5013236;28;20079;-89
2021/09/16 07:30:37;;;;;;;0.10;0.10;;;;;;;;;;5013074;28;20126;-88
2021/09/16 07:33:03;;;;;;;0.20;0.20;;;;;;;;;;4996915;28;20508;-88
2021/09/16 07:35:29;;;;;;;0.10;0.10;;;;;;;;;;5012725;28;20493;-89
2021/09/16 07:37:55;;;;;;;0.10;0.10;;;;;;;;;;5012741;28;20042;-89
2021/09/16 07:40:21;;;;;;;0.10;0.10;;;;;;;;;;5029315;28;20073;-89
2021/09/16 07:42:47;;;;;;;0.10;0.10;;;;;;;;;;5012679;28;20041;-88
2021/09/16 07:45:13;;;;;;;0.10;0.10;;;;;;;;;;5028950;28;20068;-88
2021/09/16 07:47:39;;;;;;;0.20;0.20;;;;;;;;;;5012835;28;20049;-87
2021/09/16 07:50:08;;;;;;;0.10;0.10;;;;;;;;;;4996711;28;20053;-87
2021/09/16 07:52:34;;;;;;;0.10;0.10;;;;;;;;;;5028980;28;20543;-85
2021/09/16 07:55:00;;;;;;;0.10;0.10;;;;;;;;;;5028902;28;20042;-86
2021/09/16 07:57:26;;;;;;;0.10;0.10;;;;;;;;;;5012404;28;20046;-87
2021/09/16 07:59:51;;;;;;;0.10;0.10;;;;;;;;;;5028939;28;20034;-86
2021/09/16 08:02:17;;;;;;;0.30;0.30;;;;;;;;;;5008340;28;20038;-86
2021/09/16 08:04:44;;;;;;;0.10;0.10;;;;;;;;;;5012098;28;20042;-86
2021/09/16 08:07:10;;;;;;;0.10;0.10;;;;;;;;;;4995063;28;20057;-89
2021/09/16 08:09:35;;;;;;;0.20;0.20;;;;;;;;;;4996005;28;20489;-86
2021/09/16 08:12:01;;;;;;;0.10;0.10;;;;;;;;;;4994666;28;20042;-86
2021/09/16 08:14:27;;;;;;;0.10;0.10;;;;;;;;;;5012982;28;20045;-91
2021/09/16 08:16:53;;;;;;;0.10;0.10;;;;;;;;;;4979197;28;20125;-86
2021/09/16 08:19:19;;;;;;;0.20;0.20;;;;;;;;;;4994952;28;20481;-87
2021/09/16 08:21:45;;;;;;;0.10;0.10;;;;;;;;;;4979713;28;20045;-87
2021/09/16 08:24:11;;;;;;;0.17;0.17;;;;;;;;;;4995375;28;20041;-86
2021/09/16 08:26:37;;;;;;;0.10;0.10;;;;;;;;;;4979382;28;20041;-87
2021/09/16 08:29:03;;;;;;;0.10;0.10;;;;;;;;;;5028277;28;20510;-86
2021/09/16 08:31:30;;;;;;;0.10;0.10;;;;;;;;;;4995608;28;20046;-86
2021/09/16 08:33:56;;;;;;;0.22;0.22;;;;;;;;;;4994995;28;20103;-87
2021/09/16 08:36:22;;;;;;;0.10;0.10;;;;;;;;;;5011444;28;20050;-87
2021/09/16 08:38:48;;;;;;;0.10;0.10;;;;;;;;;;5010725;28;20076;-86
2021/09/16 08:41:14;;;;;;;0.20;0.20;;;;;;;;;;5008512;28;20462;-87
2021/09/16 08:43:42;;;;;;;0.28;0.28;;;;;;;;;;4995281;28;20125;-87
2021/09/16 08:46:08;;;;;;;0.10;0.10;;;;;;;;;;4995251;28;20058;-84
2021/09/16 08:48:34;;;;;;;0.20;0.20;;;;;;;;;;4994887;28;20053;-84
2021/09/16 08:51:00;;;;;;;0.10;0.10;;;;;;;;;;5011457;28;20053;-86
2021/09/16 08:53:30;;;;;;;0.10;0.10;;;;;;;;;;4995016;28;20050;-85
2021/09/16 08:55:56;;;;;;;0.20;0.20;;;;;;;;;;5011129;28;20485;-86
2021/09/16 08:58:24;;;;;;;0.10;0.10;;;;;;;;;;5011055;28;20038;-87
2021/09/16 09:00:50;;;;;;;0.10;0.10;;;;;;;;;;4994591;28;20169;-86
2021/09/16 09:03:16;;;;;;;0.30;0.30;;;;;;;;;;5011058;28;20520;-86
2021/09/16 09:05:42;;;;;;;0.20;0.20;;;;;;;;;;5011127;28;20038;-87
2021/09/16 09:08:08;;;;;;;0.20;0.20;;;;;;;;;;5011149;28;20073;-86
2021/09/16 09:10:37;;;;;;;0.10;0.10;;;;;;;;;;5011222;28;20323;-87
2021/09/16 09:13:07;;;;;;;0.20;0.20;;;;;;;;;;4995032;28;20657;-88
2021/09/16 09:15:34;;;;;;;0.65;0.50;;;;;;;;;;5010829;28;20042;-88
2021/09/16 09:18:06;;;;;;;0.17;0.17;;;;;;;;;;5010816;28;20045;-88
2021/09/16 09:20:33;;;;;;;0.20;0.20;;;;;;;;;;5010834;28;20038;-86
2021/09/16 09:22:59;;;;;;;0.38;0.38;;;;;;;;;;5010982;28;20454;-87
2021/09/16 09:25:25;;;;;;;0.20;0.20;;;;;;;;;;4994233;28;20125;-87
2021/09/16 09:27:54;;;;;;;0.10;0.10;;;;;;;;;;4994606;28;20041;-85
2021/09/16 09:30:26;;;;;;;0.45;0.38;;;;;;;;;;4994544;28;20085;-86
2021/09/16 09:32:58;;;;;;;0.17;0.17;;;;;;;;;;4994669;28;20100;-85
2021/09/16 09:35:25;;;;;;;0.20;0.20;;;;;;;;;;5010879;28;20073;-86
2021/09/16 09:37:51;;;;;;;0.10;0.10;;;;;;;;;;4994763;28;20489;-86
2021/09/16 09:40:24;;;;;;;0.20;0.20;;;;;;;;;;4992971;28;20049;-86
2021/09/16 09:42:50;;;;;;;0.10;0.10;;;;;;;;;;4994320;28;20053;-85
2021/09/16 09:45:16;;;;;;;0.10;0.10;;;;;;;;;;5010562;28;20062;-92
2021/09/16 09:47:43;;;;;;;0.10;0.10;;;;;;;;;;4993687;28;20049;-86
2021/09/16 09:50:19;;;;;;;0.55;0.30;;;;;;;;;;5012039;28;20034;-86
2021/09/16 09:52:45;;;;;;;0.10;0.10;;;;;;;;;;4998283;28;20099;-86
2021/09/16 09:55:12;;;;;;;0.10;0.10;;;;;;;;;;5001638;28;20042;-85
2021/09/16 09:57:38;;;;;;;0.25;0.25;;;;;;;;;;4962775;28;20489;-86
2021/09/16 10:00:12;;;;;;;0.10;0.10;;;;;;;;;;4978908;28;20045;-85
2021/09/16 10:02:38;;;;;;;0.20;0.20;;;;;;;;;;5027802;28;20414;-85
2021/09/16 10:05:04;;;;;;;0.20;0.20;;;;;;;;;;5027207;28;20049;-86
2021/09/16 10:07:34;;;;;;;0.20;0.20;;;;;;;;;;5010606;28;20049;-87
2021/09/16 10:10:01;;;;;;;0.10;0.10;;;;;;;;;;5027481;28;20553;-86
2021/09/16 10:12:28;;;;;;;0.10;0.10;;;;;;;;;;5030515;28;20084;-86
2021/09/16 10:14:54;;;;;;;0.10;0.10;;;;;;;;;;5001293;28;20133;-86
2021/09/16 10:17:20;;;;;;;0.63;0.63;;;;;;;;;;5027385;28;20045;-85
2021/09/16 10:19:46;;;;;;;0.10;0.10;;;;;;;;;;5027600;28;20425;-86
2021/09/16 10:22:12;;;;;;;0.17;0.17;;;;;;;;;;5027313;28;20061;-85
2021/09/16 10:24:38;;;;;;;0.20;0.20;;;;;;;;;;5027397;28;20030;-84
2021/09/16 10:27:04;;;;;;;0.22;0.22;;;;;;;;;;5011086;28;20089;-86
2021/09/16 10:29:30;;;;;;;0.20;0.20;;;;;;;;;;5010936;28;20050;-86
2021/09/16 10:32:05;;;;;;;0.10;0.10;;;;;;;;;;4994464;28;20092;-87
2021/09/16 10:34:40;;;;;;;7.20;1.25;;;;;;;;;;4994120;28;20065;-89
2021/09/16 10:37:13;;;;;;;0.17;0.17;;;;;;;;;;5012233;28;20049;-90
2021/09/16 10:39:39;;;;;;;0.10;0.10;;;;;;;;;;4997733;28;20049;-89
2021/09/16 10:42:05;;;;;;;0.17;0.17;;;;;;;;;;4998024;28;20477;-87
2021/09/16 10:44:31;;;;;;;0.10;0.10;;;;;;;;;;5013305;28;20054;-87
2021/09/16 10:47:00;;;;;;;0.15;0.15;;;;;;;;;;5013542;28;20052;-88
2021/09/16 10:49:26;;;;;;;0.20;0.20;;;;;;;;;;5013736;28;20493;-91
2021/09/16 10:51:56;;;;;;;0.10;0.10;;;;;;;;;;4997767;28;20192;-88
2021/09/16 10:54:29;;;;;;;0.10;0.10;;;;;;;;;;5013587;28;20128;-88
2021/09/16 10:57:13;;;;;;;0.10;0.10;;;;;;;;;;5013438;28;20048;-89
2021/09/16 10:59:49;;;;;;;0.10;0.10;;;;;;;;;;4996877;28;20069;-89
2021/09/16 11:02:19;;;;;;;0.10;0.10;;;;;;;;;;5012843;28;20053;-88
2021/09/16 11:04:55;;;;;;;0.10;0.10;;;;;;;;;;5013735;28;20053;-89
2021/09/16 11:07:30;;;;;;;0.10;0.10;;;;;;;;;;5013537;28;20100;-87
2021/09/16 11:09:56;;;;;;;2.28;1.20;;;;;;;;;;5013069;28;20037;-89
2021/09/16 11:12:31;;;;;;;0.10;0.10;;;;;;;;;;4997044;28;20095;-88
2021/09/16 11:14:58;;;;;;;0.10;0.10;;;;;;;;;;5013142;28;20500;-89
2021/09/16 11:17:27;;;;;;;0.10;0.10;;;;;;;;;;4996825;28;20037;-88
2021/09/16 11:19:53;;;;;;;0.10;0.10;;;;;;;;;;5013114;28;20045;-88
2021/09/16 11:22:22;;;;;;;0.10;0.10;;;;;;;;;;5013176;28;20346;-88
2021/09/16 11:24:48;;;;;;;0.10;0.10;;;;;;;;;;5012713;28;20386;-89
2021/09/16 11:27:19;;;;;;;0.20;0.20;;;;;;;;;;4996555;28;20045;-89
2021/09/16 11:29:46;;;;;;;0.10;0.10;;;;;;;;;;5012956;28;20070;-88
2021/09/16 11:32:12;;;;;;;0.17;0.17;;;;;;;;;;5012891;28;20065;-88
2021/09/16 11:34:49;;;;;;;0.10;0.10;;;;;;;;;;5012926;28;20460;-89
2021/09/16 11:37:21;;;;;;;0.35;0.35;;;;;;;;;;5012799;28;20110;-88
2021/09/16 11:40:08;;;;;;;0.20;0.20;;;;;;;;;;5012649;28;20095;-88
2021/09/16 11:42:34;;;;;;;0.20;0.20;;;;;;;;;;5012896;28;20482;-89
2021/09/16 11:45:01;;;;;;;0.10;0.10;;;;;;;;;;5012575;28;20050;-91
2021/09/16 11:47:27;;;;;;;0.10;0.10;;;;;;;;;;4996025;28;20509;-89
2021/09/16 11:49:53;;;;;;;0.20;0.20;;;;;;;;;;4996078;28;20041;-88
2021/09/16 11:52:20;;;;;;;0.10;0.10;;;;;;;;;;5012547;28;20041;-89
2021/09/16 11:55:03;;;;;;;0.10;0.10;;;;;;;;;;5012441;28;20078;-88
2021/09/16 11:57:29;;;;;;;0.10;0.10;;;;;;;;;;5012523;28;20050;-88
2021/09/16 11:59:55;;;;;;;0.10;0.10;;;;;;;;;;4996424;28;20417;-88
2021/09/16 12:02:21;;;;;;;0.10;0.10;;;;;;;;;;4996093;28;20104;-90
2021/09/16 12:04:48;;;;;;;0.10;0.10;;;;;;;;;;4995479;28;20045;-87
2021/09/16 12:07:17;;;;;;;0.10;0.10;;;;;;;;;;4995990;28;20034;-89
2021/09/16 12:09:43;;;;;;;0.20;0.20;;;;;;;;;;5012504;28;20041;-86
2021/09/16 12:12:09;;;;;;;0.20;0.20;;;;;;;;;;5028560;28;20453;-86
2021/09/16 12:14:36;;;;;;;0.10;0.10;;;;;;;;;;5011086;28;20489;-89
2021/09/16 12:17:02;;;;;;;0.10;0.10;;;;;;;;;;5012265;28;20058;-89
2021/09/16 12:19:28;;;;;;;0.20;0.20;;;;;;;;;;5011948;28;20125;-89
2021/09/16 12:21:54;;;;;;;0.10;0.10;;;;;;;;;;5012073;28;20065;-88
2021/09/16 12:24:22;;;;;;;0.10;0.10;;;;;;;;;;5011907;28;20046;-88
2021/09/16 12:26:50;;;;;;;0.65;0.65;;;;;;;;;;5012099;28;20041;-89
2021/09/16 12:29:16;;;;;;;0.10;0.10;;;;;;;;;;4995300;28;20046;-90
2021/09/16 12:31:43;;;;;;;0.20;0.20;;;;;;;;;;5028193;28;20046;-90
2021/09/16 12:34:19;;;;;;;0.10;0.10;;;;;;;;;;5131082;27;20390;-88
2021/09/16 12:36:55;;;;;;;0.10;0.10;;;;;;;;;;5111938;28;20505;-87
2021/09/16 12:39:21;;;;;;;0.20;0.20;;;;;;;;;;5095108;28;20481;-88
2021/09/16 12:41:50;;;;;;;0.20;0.20;;;;;;;;;;5111654;28;20094;-88
2021/09/16 12:44:20;;;;;;;0.10;0.10;;;;;;;;;;5128983;28;20032;-86
2021/09/16 12:46:47;;;;;;;0.10;0.10;;;;;;;;;;5128578;28;20046;-87
2021/09/16 12:49:26;;;;;;;0.10;0.10;;;;;;;;;;5095044;28;20381;-87
2021/09/16 12:51:59;;;;;;;0.10;0.10;;;;;;;;;;5128754;27;20043;-87
2021/09/16 12:54:25;;;;;;;0.10;0.10;;;;;;;;;;5111235;28;20089;-88
2021/09/16 12:56:51;;;;;;;0.10;0.10;;;;;;;;;;5095045;28;20382;-89
2021/09/16 12:59:21;;;;;;;0.20;0.20;;;;;;;;;;5094579;28;20039;-89
2021/09/16 13:01:47;;;;;;;0.20;0.20;;;;;;;;;;5111859;28;20425;-90
2021/09/16 13:04:13;;;;;;;0.20;0.20;;;;;;;;;;5111459;28;20043;-90
2021/09/16 13:06:39;;;;;;;0.10;0.10;;;;;;;;;;5111324;28;20044;-87
2021/09/16 13:09:05;;;;;;;0.32;0.32;;;;;;;;;;5111099;28;20551;-87
2021/09/16 13:11:31;;;;;;;0.10;0.10;;;;;;;;;;5111096;28;20140;-88
2021/09/16 13:14:04;;;;;;;0.20;0.20;;;;;;;;;;5127994;27;20048;-89
2021/09/16 13:16:31;;;;;;;0.10;0.10;;;;;;;;;;5111170;28;20039;-88
2021/09/16 13:18:56;;;;;;;0.10;0.10;;;;;;;;;;5111137;28;20039;-87
2021/09/16 13:21:22;;;;;;;0.10;0.10;;;;;;;;;;5110923;27;20043;-89
2021/09/16 13:23:49;;;;;;;0.10;0.10;;;;;;;;;;5110961;27;20039;-89
2021/09/16 13:26:15;;;;;;;0.10;0.10;;;;;;;;;;5110932;28;20126;-90
2021/09/16 13:28:41;;;;;;;0.13;0.13;;;;;;;;;;5111036;28;20074;-89
2021/09/16 13:31:07;;;;;;;0.10;0.10;;;;;;;;;;5111075;28;20039;-87
2021/09/16 13:33:33;;;;;;;0.10;0.10;;;;;;;;;;5110427;28;20055;-85
2021/09/16 13:35:59;;;;;;;5.95;0.52;;;;;;;;;;5127730;28;20039;-88
2021/09/16 13:38:25;;;;;;;0.30;0.30;;;;;;;;;;5111192;28;20088;-89
2021/09/16 13:40:54;;;;;;;0.20;0.20;;;;;;;;;;5107278;28;20036;-89
2021/09/16 13:43:20;;;;;;;0.10;0.10;;;;;;;;;;5127673;28;20478;-89
2021/09/16 13:45:46;;;;;;;0.10;0.10;;;;;;;;;;5079405;28;20046;-88
2021/09/16 13:48:13;;;;;;;0.10;0.10;;;;;;;;;;5081205;28;20080;-93
2021/09/16 13:50:39;;;;;;;0.10;0.10;;;;;;;;;;5079898;28;20083;-88
2021/09/16 13:53:05;;;;;;;0.10;0.10;;;;;;;;;;5096789;28;20155;-89
2021/09/16 13:55:32;;;;;;;0.10;0.10;;;;;;;;;;5097215;28;20047;-90
2021/09/16 13:57:58;;;;;;;0.10;0.10;;;;;;;;;;5113675;28;20048;-89
2021/09/16 14:00:24;;;;;;;0.13;0.13;;;;;;;;;;5097047;28;20039;-89
2021/09/16 14:02:50;;;;;;;0.10;0.10;;;;;;;;;;5096923;28;20043;-89
2021/09/16 14:05:16;;;;;;;0.10;0.10;;;;;;;;;;5096432;28;20048;-89
2021/09/16 14:07:42;;;;;;;0.10;0.10;;;;;;;;;;5097108;28;20108;-89
2021/09/16 14:10:09;;;;;;;0.10;0.10;;;;;;;;;;5079552;28;20043;-89
2021/09/16 14:12:35;;;;;;;0.10;0.10;;;;;;;;;;5096543;28;20055;-88
2021/09/16 14:15:01;;;;;;;0.10;0.10;;;;;;;;;;5096399;28;20554;-89
2021/09/16 14:17:27;;;;;;;0.20;0.20;;;;;;;;;;5096630;28;20063;-87
2021/09/16 14:19:53;;;;;;;0.10;0.10;;;;;;;;;;5096417;28;20039;-87
2021/09/16 14:22:19;;;;;;;0.10;0.10;;;;;;;;;;5096260;28;20058;-88
2021/09/16 14:24:45;;;;;;;1.35;0.30;;;;;;;;;;5096412;28;20096;-88
2021/09/16 14:27:10;;;;;;;0.10;0.10;;;;;;;;;;5079237;28;20045;-88
2021/09/16 14:29:36;;;;;;;0.10;0.10;;;;;;;;;;5112917;28;20044;-88
2021/09/16 14:32:02;;;;;;;0.10;0.10;;;;;;;;;;5095765;28;20176;-88
2021/09/16 14:34:28;;;;;;;0.10;0.10;;;;;;;;;;5095816;28;20390;-88
2021/09/16 14:36:54;;;;;;;0.15;0.15;;;;;;;;;;5095885;28;20195;-88
2021/09/16 14:39:20;;;;;;;0.10;0.10;;;;;;;;;;5112514;28;20042;-88